Durango, CO

9:18 PM MDT on August 22, 2014 (GMT -0600)
Telluride Regional | Change Station
CLOSE
Current Station
Airport
Location: Telluride,
Elevation: 9078 ft
Nearby Weather Stations

Elev 9078 ft 37.95 °N, 107.91 °W | Updated 41 minutes ago

Clear
Clear
48 °F
Feels Like 48 °F
N
7
Wind Variable Wind from ESE

Today
High -- | Low -- °F
--% Chance of Precip.
Yesterday
High -- | Low -- °F
Precip. -- in
6:33 AM 7:54 PM
Waning Crescent, 5% visible
Pressure 30.31 in
Visibility 10.0 miles
Clouds Clear
Dew Point 46 °F
Humidity 93%
Rainfall 0.15 in
Snow Depth 1 in , 0 in , 1 in
UV 0 out of 12
Pollen 7.40 out of 12
Air Quality Not available.
Flu Activity Not available.
METAR KTEX 230237Z AUTO 11006KT 10SM CLR 09/08 A3031 RMK AO2 LTG DSNT NW

More Conditions Fewer Conditions

Pressure 30.31 in
Visibility 10.0 miles
Clouds Clear
Dew Point 46 °F
Humidity 93%
Rainfall 0.15 in
Snow Depth 1 in , 0 in , 1 in
UV 0 out of 12
Pollen 7.40 out of 12
Air Quality Not available.
Flu Activity Not available.
METAR KTEX 230237Z AUTO 11006KT 10SM CLR 09/08 A3031 RMK AO2 LTG DSNT NW

More Conditions Fewer Conditions

10-Day Weather Forecast

Almanac

Astronomy

Aug. 22, 2014 Rise Set
Actual Time 6:33 AM MDT 7:54 PM MDT
Civil Twilight 6:06 AM MDT 8:21 PM MDT
Nautical Twilight 5:33 AM MDT 8:53 PM MDT
Astronomical Twilight 4:59 AM MDT 9:27 PM MDT
Moon 4:00 AM MDT (8/22) 6:03 PM MDT (8/22)
Length of Visible Light 14h 15m
Length of Day
13h 20m
Tomorrow will be 2m 13s shorter.
Waning Crescent, 5% of the Moon is Illuminated
Today
Waning Crescent
Aug 25
New
Sep 2
First Quarter
Sep 8
Full
Sep 15
Last Quarter

Today's Extremes

State Highs State Lows

Community

WunderPhotos

Upload Photos

1,746,345 photos uploaded!

WunderBlogs® & News

Nearby

Snow Depth

Station Depth Elevation
Columbus Basin 1 in 10785 ft
Stump Lakes 0 in 11200 ft
Sharkstooth 1 in 10720 ft
Vallecito 1 in 10880 ft
Cascade 0 in 8880 ft

Earthquake Activity

City Distance Mag. Time & Date
No recent earthquake activity has been reported nearby.
Minimum magnitude displayed is 2.5.

Coastal Water Temperatures

Place Temperature
No Stations Reporting

Nearby Weather Stations